sensor_id;sensor_type;location;lat;lon;timestamp;pressure;altitude;pressure_sealevel;temperature;humidity
8160;BME280;27404;52.398;9.646;2022-08-21T00:01:46;100940.13;;;14.61;100.00
8160;BME280;27404;52.398;9.646;2022-08-21T00:04:12;100933.72;;;14.55;100.00
8160;BME280;27404;52.398;9.646;2022-08-21T00:06:38;100932.75;;;14.44;100.00
8160;BME280;27404;52.398;9.646;2022-08-21T00:09:06;100927.69;;;14.36;100.00
8160;BME280;27404;52.398;9.646;2022-08-21T00:11:32;100932.03;;;14.32;100.00
8160;BME280;27404;52.398;9.646;2022-08-21T00:13:58;100921.72;;;14.22;100.00
8160;BME280;27404;52.398;9.646;2022-08-21T00:16:24;100919.41;;;14.14;100.00
8160;BME280;27404;52.398;9.646;2022-08-21T00:18:49;100921.50;;;14.06;100.00
8160;BME280;27404;52.398;9.646;2022-08-21T00:21:15;100916.50;;;14.03;100.00
8160;BME280;27404;52.398;9.646;2022-08-21T00:23:41;100920.81;;;13.99;100.00
8160;BME280;27404;52.398;9.646;2022-08-21T00:26:07;100918.53;;;13.91;100.00
8160;BME280;27404;52.398;9.646;2022-08-21T00:28:33;100925.34;;;13.88;100.00
8160;BME280;27404;52.398;9.646;2022-08-21T00:30:59;100926.25;;;13.94;100.00
8160;BME280;27404;52.398;9.646;2022-08-21T00:33:25;100928.09;;;13.88;100.00
8160;BME280;27404;52.398;9.646;2022-08-21T00:35:51;100925.34;;;13.88;100.00
8160;BME280;27404;52.398;9.646;2022-08-21T00:38:17;100922.59;;;13.88;100.00
8160;BME280;27404;52.398;9.646;2022-08-21T00:40:55;100928.19;;;13.94;100.00
8160;BME280;27404;52.398;9.646;2022-08-21T00:43:26;100932.78;;;13.88;100.00
8160;BME280;27404;52.398;9.646;2022-08-21T00:45:54;100933.50;;;13.83;100.00
8160;BME280;27404;52.398;9.646;2022-08-21T00:48:20;100935.59;;;13.76;100.00
8160;BME280;27404;52.398;9.646;2022-08-21T00:50:52;100936.00;;;13.68;100.00
8160;BME280;27404;52.398;9.646;2022-08-21T00:53:20;100940.19;;;13.70;100.00
8160;BME280;27404;52.398;9.646;2022-08-21T00:55:46;100943.16;;;13.69;100.00
8160;BME280;27404;52.398;9.646;2022-08-21T00:58:12;100934.91;;;13.69;100.00
8160;BME280;27404;52.398;9.646;2022-08-21T01:00:41;100941.41;;;13.62;100.00
8160;BME280;27404;52.398;9.646;2022-08-21T01:03:20;100941.34;;;13.57;100.00
8160;BME280;27404;52.398;9.646;2022-08-21T01:05:46;100940.66;;;13.50;100.00
8160;BME280;27404;52.398;9.646;2022-08-21T01:08:13;100938.91;;;13.44;100.00
8160;BME280;27404;52.398;9.646;2022-08-21T01:10:40;100941.75;;;13.49;100.00
8160;BME280;27404;52.398;9.646;2022-08-21T01:13:07;100939.69;;;13.56;100.00
8160;BME280;27404;52.398;9.646;2022-08-21T01:15:38;100945.31;;;13.50;100.00
8160;BME280;27404;52.398;9.646;2022-08-21T01:18:07;100948.69;;;13.40;100.00
8160;BME280;27404;52.398;9.646;2022-08-21T01:20:34;100944.19;;;13.33;100.00
8160;BME280;27404;52.398;9.646;2022-08-21T01:23:02;100946.34;;;13.31;100.00
8160;BME280;27404;52.398;9.646;2022-08-21T01:25:28;100944.88;;;13.41;100.00
8160;BME280;27404;52.398;9.646;2022-08-21T01:27:54;100943.56;;;13.43;100.00
8160;BME280;27404;52.398;9.646;2022-08-21T01:30:23;100942.13;;;13.41;100.00
8160;BME280;27404;52.398;9.646;2022-08-21T01:32:50;100942.25;;;13.46;100.00
8160;BME280;27404;52.398;9.646;2022-08-21T01:35:17;100931.75;;;13.43;100.00
8160;BME280;27404;52.398;9.646;2022-08-21T01:37:44;100940.19;;;13.53;100.00
8160;BME280;27404;52.398;9.646;2022-08-21T01:40:11;100941.75;;;13.49;100.00
8160;BME280;27404;52.398;9.646;2022-08-21T01:42:38;100933.41;;;13.44;100.00
8160;BME280;27404;52.398;9.646;2022-08-21T01:45:04;100938.19;;;13.37;100.00
8160;BME280;27404;52.398;9.646;2022-08-21T01:47:30;100933.91;;;13.29;100.00
8160;BME280;27404;52.398;9.646;2022-08-21T01:49:55;100935.44;;;13.20;100.00
8160;BME280;27404;52.398;9.646;2022-08-21T01:52:21;100937.00;;;13.15;100.00
8160;BME280;27404;52.398;9.646;2022-08-21T01:54:46;100935.47;;;13.08;100.00
8160;BME280;27404;52.398;9.646;2022-08-21T01:57:13;100924.63;;;13.01;100.00
8160;BME280;27404;52.398;9.646;2022-08-21T01:59:38;100908.38;;;13.11;100.00
8160;BME280;27404;52.398;9.646;2022-08-21T02:02:04;100917.22;;;13.30;100.00
8160;BME280;27404;52.398;9.646;2022-08-21T02:04:30;100924.78;;;13.40;100.00
8160;BME280;27404;52.398;9.646;2022-08-21T02:06:56;100916.09;;;13.43;100.00
8160;BME280;27404;52.398;9.646;2022-08-21T02:09:21;100913.44;;;13.48;100.00
8160;BME280;27404;52.398;9.646;2022-08-21T02:11:47;100913.13;;;13.45;100.00
8160;BME280;27404;52.398;9.646;2022-08-21T02:14:14;100917.16;;;13.42;100.00
8160;BME280;27404;52.398;9.646;2022-08-21T02:16:41;100904.16;;;13.38;100.00
8160;BME280;27404;52.398;9.646;2022-08-21T02:19:08;100911.56;;;13.37;100.00
8160;BME280;27404;52.398;9.646;2022-08-21T02:21:34;100911.72;;;13.30;100.00
8160;BME280;27404;52.398;9.646;2022-08-21T02:23:59;100900.06;;;13.23;100.00
8160;BME280;27404;52.398;9.646;2022-08-21T02:26:25;100902.22;;;13.21;100.00
8160;BME280;27404;52.398;9.646;2022-08-21T02:28:51;100895.34;;;13.18;100.00
8160;BME280;27404;52.398;9.646;2022-08-21T02:31:17;100902.19;;;13.04;100.00
8160;BME280;27404;52.398;9.646;2022-08-21T02:33:42;100895.66;;;12.93;100.00
8160;BME280;27404;52.398;9.646;2022-08-21T02:36:09;100896.56;;;12.82;100.00
8160;BME280;27404;52.398;9.646;2022-08-21T02:38:37;100890.63;;;12.73;100.00
8160;BME280;27404;52.398;9.646;2022-08-21T02:41:07;100894.91;;;12.69;100.00
8160;BME280;27404;52.398;9.646;2022-08-21T02:43:33;100894.09;;;12.68;100.00
8160;BME280;27404;52.398;9.646;2022-08-21T02:46:00;100895.28;;;12.72;100.00
8160;BME280;27404;52.398;9.646;2022-08-21T02:48:28;100887.91;;;12.61;100.00
8160;BME280;27404;52.398;9.646;2022-08-21T02:50:58;100887.22;;;12.54;100.00
8160;BME280;27404;52.398;9.646;2022-08-21T02:53:24;100883.28;;;12.50;100.00
8160;BME280;27404;52.398;9.646;2022-08-21T02:55:51;100885.31;;;12.54;100.00
8160;BME280;27404;52.398;9.646;2022-08-21T02:58:21;100876.50;;;12.52;100.00
8160;BME280;27404;52.398;9.646;2022-08-21T03:00:47;100877.44;;;12.58;100.00
8160;BME280;27404;52.398;9.646;2022-08-21T03:03:12;100873.25;;;12.67;100.00
8160;BME280;27404;52.398;9.646;2022-08-21T03:05:39;100877.00;;;12.78;100.00
8160;BME280;27404;52.398;9.646;2022-08-21T03:08:08;100871.91;;;12.99;100.00
8160;BME280;27404;52.398;9.646;2022-08-21T03:10:38;100873.41;;;13.07;100.00
8160;BME280;27404;52.398;9.646;2022-08-21T03:13:05;100865.84;;;13.14;100.00
8160;BME280;27404;52.398;9.646;2022-08-21T03:15:31;100872.34;;;13.08;100.00
8160;BME280;27404;52.398;9.646;2022-08-21T03:17:57;100869.34;;;13.09;100.00
8160;BME280;27404;52.398;9.646;2022-08-21T03:20:25;100868.50;;;13.09;100.00
8160;BME280;27404;52.398;9.646;2022-08-21T03:22:51;100869.19;;;13.16;100.00
8160;BME280;27404;52.398;9.646;2022-08-21T03:25:17;100877.50;;;13.21;100.00
8160;BME280;27404;52.398;9.646;2022-08-21T03:27:43;100873.78;;;13.27;100.00
8160;BME280;27404;52.398;9.646;2022-08-21T03:30:09;100874.19;;;13.36;100.00
8160;BME280;27404;52.398;9.646;2022-08-21T03:32:35;100879.47;;;13.38;100.00
8160;BME280;27404;52.398;9.646;2022-08-21T03:35:02;100872.16;;;13.43;100.00
8160;BME280;27404;52.398;9.646;2022-08-21T03:37:28;100872.50;;;13.47;100.00
8160;BME280;27404;52.398;9.646;2022-08-21T03:39:53;100872.81;;;13.51;100.00
8160;BME280;27404;52.398;9.646;2022-08-21T03:42:19;100874.56;;;13.57;100.00
8160;BME280;27404;52.398;9.646;2022-08-21T03:44:45;100868.66;;;13.65;100.00
8160;BME280;27404;52.398;9.646;2022-08-21T03:47:10;100869.66;;;13.76;100.00
8160;BME280;27404;52.398;9.646;2022-08-21T03:49:36;100873.06;;;13.83;100.00
8160;BME280;27404;52.398;9.646;2022-08-21T03:52:03;100871.72;;;13.86;100.00
8160;BME280;27404;52.398;9.646;2022-08-21T03:54:29;100875.38;;;13.91;100.00
8160;BME280;27404;52.398;9.646;2022-08-21T03:56:54;100871.63;;;13.98;100.00
8160;BME280;27404;52.398;9.646;2022-08-21T03:59:20;100875.53;;;14.02;100.00
8160;BME280;27404;52.398;9.646;2022-08-21T04:01:57;100881.34;;;14.05;100.00
8160;BME280;27404;52.398;9.646;2022-08-21T04:04:23;100877.91;;;14.15;100.00
8160;BME280;27404;52.398;9.646;2022-08-21T04:06:49;100874.03;;;14.33;100.00
8160;BME280;27404;52.398;9.646;2022-08-21T04:09:15;100879.03;;;14.36;100.00
8160;BME280;27404;52.398;9.646;2022-08-21T04:11:41;100875.94;;;14.33;100.00
8160;BME280;27404;52.398;9.646;2022-08-21T04:14:06;100871.78;;;14.30;100.00
8160;BME280;27404;52.398;9.646;2022-08-21T04:16:32;100876.28;;;14.36;100.00
8160;BME280;27404;52.398;9.646;2022-08-21T04:18:57;100883.50;;;14.43;100.00
8160;BME280;27404;52.398;9.646;2022-08-21T04:21:23;100877.22;;;14.47;100.00
8160;BME280;27404;52.398;9.646;2022-08-21T04:23:49;100883.28;;;14.49;100.00
8160;BME280;27404;52.398;9.646;2022-08-21T04:26:15;100874.28;;;14.54;100.00
8160;BME280;27404;52.398;9.646;2022-08-21T04:28:40;100876.78;;;14.56;100.00
8160;BME280;27404;52.398;9.646;2022-08-21T04:31:06;100884.25;;;14.60;100.00
8160;BME280;27404;52.398;9.646;2022-08-21T04:33:32;100876.06;;;14.65;100.00
8160;BME280;27404;52.398;9.646;2022-08-21T04:35:58;100885.03;;;14.78;100.00
8160;BME280;27404;52.398;9.646;2022-08-21T04:38:23;100886.53;;;14.86;100.00
8160;BME280;27404;52.398;9.646;2022-08-21T04:40:49;100887.56;;;15.07;100.00
8160;BME280;27404;52.398;9.646;2022-08-21T04:43:15;100886.13;;;15.04;100.00
8160;BME280;27404;52.398;9.646;2022-08-21T04:45:43;100892.16;;;15.01;100.00
8160;BME280;27404;52.398;9.646;2022-08-21T04:48:11;100901.50;;;15.00;100.00
8160;BME280;27404;52.398;9.646;2022-08-21T04:53:40;100895.88;;;15.12;100.00
8160;BME280;27404;52.398;9.646;2022-08-21T04:56:34;100894.00;;;15.18;100.00
8160;BME280;27404;52.398;9.646;2022-08-21T04:59:04;100892.94;;;15.24;100.00
8160;BME280;27404;52.398;9.646;2022-08-21T05:01:34;100892.72;;;15.31;100.00
8160;BME280;27404;52.398;9.646;2022-08-21T05:04:02;100897.47;;;15.35;100.00
8160;BME280;27404;52.398;9.646;2022-08-21T05:06:32;100896.16;;;15.43;100.00
8160;BME280;27404;52.398;9.646;2022-08-21T05:08:59;100893.75;;;15.52;100.00
8160;BME280;27404;52.398;9.646;2022-08-21T05:11:26;100891.59;;;15.59;100.00
8160;BME280;27404;52.398;9.646;2022-08-21T05:13:51;100891.94;;;15.68;100.00
8160;BME280;27404;52.398;9.646;2022-08-21T05:16:17;100894.22;;;15.76;100.00
8160;BME280;27404;52.398;9.646;2022-08-21T05:18:43;100897.84;;;15.82;100.00
8160;BME280;27404;52.398;9.646;2022-08-21T05:21:09;100907.31;;;15.91;100.00
8160;BME280;27404;52.398;9.646;2022-08-21T05:23:35;100902.69;;;16.02;100.00
8160;BME280;27404;52.398;9.646;2022-08-21T05:26:02;100905.28;;;16.24;100.00
8160;BME280;27404;52.398;9.646;2022-08-21T05:28:30;100903.16;;;16.37;100.00
8160;BME280;27404;52.398;9.646;2022-08-21T05:30:56;100913.16;;;16.48;100.00
8160;BME280;27404;52.398;9.646;2022-08-21T05:33:21;100908.22;;;16.55;100.00
8160;BME280;27404;52.398;9.646;2022-08-21T05:35:50;100914.03;;;16.64;100.00
8160;BME280;27404;52.398;9.646;2022-08-21T05:38:17;100917.13;;;16.73;100.00
8160;BME280;27404;52.398;9.646;2022-08-21T05:40:42;100919.06;;;16.78;100.00
8160;BME280;27404;52.398;9.646;2022-08-21T05:43:08;100916.06;;;16.84;100.00
8160;BME280;27404;52.398;9.646;2022-08-21T05:45:33;100925.13;;;16.80;100.00
8160;BME280;27404;52.398;9.646;2022-08-21T05:48:06;100929.50;;;16.70;100.00
8160;BME280;27404;52.398;9.646;2022-08-21T05:50:32;100939.13;;;16.57;100.00
8160;BME280;27404;52.398;9.646;2022-08-21T05:52:57;100934.44;;;16.53;100.00
8160;BME280;27404;52.398;9.646;2022-08-21T05:55:23;100935.78;;;16.50;100.00
8160;BME280;27404;52.398;9.646;2022-08-21T05:57:48;100932.44;;;16.43;100.00
8160;BME280;27404;52.398;9.646;2022-08-21T06:00:14;100932.72;;;16.41;100.00
8160;BME280;27404;52.398;9.646;2022-08-21T06:02:40;100948.38;;;16.36;100.00
8160;BME280;27404;52.398;9.646;2022-08-21T06:05:06;100939.28;;;16.35;100.00
8160;BME280;27404;52.398;9.646;2022-08-21T06:07:32;100936.50;;;16.30;100.00
8160;BME280;27404;52.398;9.646;2022-08-21T06:09:57;100940.09;;;16.31;100.00
8160;BME280;27404;52.398;9.646;2022-08-21T06:12:23;100937.56;;;16.24;100.00
8160;BME280;27404;52.398;9.646;2022-08-21T06:14:49;100943.09;;;16.24;100.00
8160;BME280;27404;52.398;9.646;2022-08-21T06:17:17;100940.34;;;16.24;100.00
8160;BME280;27404;52.398;9.646;2022-08-21T06:19:43;100942.03;;;16.30;100.00
8160;BME280;27404;52.398;9.646;2022-08-21T06:22:09;100936.81;;;16.39;100.00
8160;BME280;27404;52.398;9.646;2022-08-21T06:24:34;100943.28;;;16.55;100.00
8160;BME280;27404;52.398;9.646;2022-08-21T06:27:05;100943.00;;;16.62;100.00
8160;BME280;27404;52.398;9.646;2022-08-21T06:29:31;100943.91;;;16.83;100.00
8160;BME280;27404;52.398;9.646;2022-08-21T06:31:57;100941.84;;;17.11;100.00
8160;BME280;27404;52.398;9.646;2022-08-21T06:34:22;100947.69;;;17.40;100.00
8160;BME280;27404;52.398;9.646;2022-08-21T06:36:48;100942.47;;;18.06;100.00
8160;BME280;27404;52.398;9.646;2022-08-21T06:39:13;100943.00;;;19.45;96.02
8160;BME280;27404;52.398;9.646;2022-08-21T06:41:39;100946.19;;;20.02;91.10
8160;BME280;27404;52.398;9.646;2022-08-21T06:44:04;100952.72;;;20.90;86.68
8160;BME280;27404;52.398;9.646;2022-08-21T06:46:30;100947.91;;;23.17;70.49
8160;BME280;27404;52.398;9.646;2022-08-21T06:48:56;100958.69;;;25.22;56.73
8160;BME280;27404;52.398;9.646;2022-08-21T06:51:23;100957.25;;;26.34;47.75
8160;BME280;27404;52.398;9.646;2022-08-21T06:53:49;100947.44;;;26.10;46.56
8160;BME280;27404;52.398;9.646;2022-08-21T06:56:14;100960.91;;;26.64;44.63
8160;BME280;27404;52.398;9.646;2022-08-21T06:58:40;100957.44;;;26.28;43.57
8160;BME280;27404;52.398;9.646;2022-08-21T07:01:05;100948.22;;;26.67;43.79
8160;BME280;27404;52.398;9.646;2022-08-21T07:03:42;100960.06;;;27.45;42.16
8160;BME280;27404;52.398;9.646;2022-08-21T07:06:09;100961.94;;;26.59;42.68
8160;BME280;27404;52.398;9.646;2022-08-21T07:08:36;100950.97;;;26.37;43.69
8160;BME280;27404;52.398;9.646;2022-08-21T07:11:04;100951.53;;;26.21;44.00
8160;BME280;27404;52.398;9.646;2022-08-21T07:13:32;100940.06;;;24.42;48.62
8160;BME280;27404;52.398;9.646;2022-08-21T07:15:57;100936.25;;;23.74;54.97
8160;BME280;27404;52.398;9.646;2022-08-21T07:18:23;100934.34;;;22.45;61.16
8160;BME280;27404;52.398;9.646;2022-08-21T07:20:48;100930.81;;;22.26;65.09
8160;BME280;27404;52.398;9.646;2022-08-21T07:23:53;100930.47;;;21.99;64.29
8160;BME280;27404;52.398;9.646;2022-08-21T07:26:21;100922.19;;;21.61;66.54
8160;BME280;27404;52.398;9.646;2022-08-21T07:28:48;100922.00;;;21.38;69.39
8160;BME280;27404;52.398;9.646;2022-08-21T07:31:16;100928.91;;;21.22;68.96
8160;BME280;27404;52.398;9.646;2022-08-21T07:33:42;100927.03;;;21.17;69.79
8160;BME280;27404;52.398;9.646;2022-08-21T07:36:08;100925.84;;;21.04;68.93
8160;BME280;27404;52.398;9.646;2022-08-21T07:38:34;100919.06;;;20.91;71.02
8160;BME280;27404;52.398;9.646;2022-08-21T07:41:01;100917.72;;;20.89;73.26
8160;BME280;27404;52.398;9.646;2022-08-21T07:43:28;100911.09;;;20.84;74.42
8160;BME280;27404;52.398;9.646;2022-08-21T07:45:54;100906.03;;;20.67;69.33
8160;BME280;27404;52.398;9.646;2022-08-21T07:48:21;100912.47;;;20.63;69.10
8160;BME280;27404;52.398;9.646;2022-08-21T07:50:47;100903.81;;;20.45;66.42
8160;BME280;27404;52.398;9.646;2022-08-21T07:53:12;100897.59;;;20.53;66.63
8160;BME280;27404;52.398;9.646;2022-08-21T07:58:03;100902.25;;;20.58;66.16
8160;BME280;27404;52.398;9.646;2022-08-21T08:00:29;100905.03;;;20.58;65.71
8160;BME280;27404;52.398;9.646;2022-08-21T08:02:56;100904.97;;;20.63;63.67
8160;BME280;27404;52.398;9.646;2022-08-21T08:05:26;100905.13;;;20.72;60.60
8160;BME280;27404;52.398;9.646;2022-08-21T08:07:52;100901.00;;;20.69;61.62
8160;BME280;27404;52.398;9.646;2022-08-21T08:10:18;100898.81;;;20.66;60.61
8160;BME280;27404;52.398;9.646;2022-08-21T08:12:45;100898.94;;;20.80;61.06
8160;BME280;27404;52.398;9.646;2022-08-21T08:15:15;100897.75;;;20.86;59.85
8160;BME280;27404;52.398;9.646;2022-08-21T08:17:41;100897.75;;;20.86;60.42
8160;BME280;27404;52.398;9.646;2022-08-21T08:20:08;100900.59;;;21.00;62.17
8160;BME280;27404;52.398;9.646;2022-08-21T08:22:35;100897.06;;;21.14;59.15
8160;BME280;27404;52.398;9.646;2022-08-21T08:25:01;100895.19;;;21.28;59.29
8160;BME280;27404;52.398;9.646;2022-08-21T08:27:26;100897.38;;;21.32;57.24
8160;BME280;27404;52.398;9.646;2022-08-21T08:29:52;100896.34;;;21.41;56.16
8160;BME280;27404;52.398;9.646;2022-08-21T08:32:18;100901.25;;;21.50;55.31
8160;BME280;27404;52.398;9.646;2022-08-21T08:34:44;100902.16;;;21.45;58.93
8160;BME280;27404;52.398;9.646;2022-08-21T08:37:12;100898.38;;;21.55;57.96
8160;BME280;27404;52.398;9.646;2022-08-21T08:39:37;100905.44;;;21.66;56.93
8160;BME280;27404;52.398;9.646;2022-08-21T08:42:18;100897.16;;;21.61;56.22
8160;BME280;27404;52.398;9.646;2022-08-21T08:44:46;100907.22;;;21.76;55.32
8160;BME280;27404;52.398;9.646;2022-08-21T08:47:16;100897.81;;;21.72;55.43
8160;BME280;27404;52.398;9.646;2022-08-21T08:50:05;100895.59;;;21.88;55.92
8160;BME280;27404;52.398;9.646;2022-08-21T08:52:37;100890.88;;;22.02;52.20
8160;BME280;27404;52.398;9.646;2022-08-21T08:55:13;100893.56;;;22.08;52.40
8160;BME280;27404;52.398;9.646;2022-08-21T08:57:44;100891.44;;;22.32;51.21
8160;BME280;27404;52.398;9.646;2022-08-21T09:00:13;100892.34;;;22.28;51.71
8160;BME280;27404;52.398;9.646;2022-08-21T09:02:42;100886.34;;;22.21;53.96
8160;BME280;27404;52.398;9.646;2022-08-21T09:05:09;100886.75;;;22.28;52.18
8160;BME280;27404;52.398;9.646;2022-08-21T09:07:56;100892.66;;;22.40;50.62
8160;BME280;27404;52.398;9.646;2022-08-21T09:10:38;100887.84;;;22.46;51.02
8160;BME280;27404;52.398;9.646;2022-08-21T09:16:29;100890.72;;;22.55;51.58
8160;BME280;27404;52.398;9.646;2022-08-21T09:22:08;100881.50;;;22.40;49.83
8160;BME280;27404;52.398;9.646;2022-08-21T09:25:01;100877.06;;;22.39;49.51
8160;BME280;27404;52.398;9.646;2022-08-21T09:27:30;100881.94;;;22.61;50.81
8160;BME280;27404;52.398;9.646;2022-08-21T09:29:56;100875.09;;;22.68;50.02
8160;BME280;27404;52.398;9.646;2022-08-21T09:32:28;100877.56;;;22.83;49.87
8160;BME280;27404;52.398;9.646;2022-08-21T09:37:44;100873.06;;;22.96;48.09
8160;BME280;27404;52.398;9.646;2022-08-21T09:43:04;100872.72;;;22.75;48.80
8160;BME280;27404;52.398;9.646;2022-08-21T09:45:32;100873.69;;;22.56;49.35
8160;BME280;27404;52.398;9.646;2022-08-21T09:48:21;100869.03;;;22.66;48.55
8160;BME280;27404;52.398;9.646;2022-08-21T09:50:48;100868.91;;;22.71;49.02
8160;BME280;27404;52.398;9.646;2022-08-21T09:53:27;100872.38;;;22.90;48.04
8160;BME280;27404;52.398;9.646;2022-08-21T09:55:57;100872.25;;;22.96;46.95
8160;BME280;27404;52.398;9.646;2022-08-21T09:58:46;100864.28;;;23.03;46.18
8160;BME280;27404;52.398;9.646;2022-08-21T10:01:21;100867.34;;;23.15;46.51
8160;BME280;27404;52.398;9.646;2022-08-21T10:03:48;100868.84;;;22.99;46.20
8160;BME280;27404;52.398;9.646;2022-08-21T10:06:31;100855.31;;;23.06;45.42
8160;BME280;27404;52.398;9.646;2022-08-21T10:09:15;100868.41;;;23.05;46.31
8160;BME280;27404;52.398;9.646;2022-08-21T10:11:48;100872.16;;;23.01;45.65
8160;BME280;27404;52.398;9.646;2022-08-21T10:20:10;100855.44;;;23.24;43.59
8160;BME280;27404;52.398;9.646;2022-08-21T10:23:04;100853.63;;;23.42;44.21
8160;BME280;27404;52.398;9.646;2022-08-21T10:25:55;100855.31;;;23.51;42.54
8160;BME280;27404;52.398;9.646;2022-08-21T10:28:32;100860.91;;;23.51;42.76
8160;BME280;27404;52.398;9.646;2022-08-21T10:31:21;100845.44;;;23.77;43.23
8160;BME280;27404;52.398;9.646;2022-08-21T10:34:10;100852.00;;;23.72;43.73
8160;BME280;27404;52.398;9.646;2022-08-21T10:37:09;100852.63;;;23.69;43.08
8160;BME280;27404;52.398;9.646;2022-08-21T10:42:17;100847.47;;;23.31;43.98
8160;BME280;27404;52.398;9.646;2022-08-21T10:45:02;100837.03;;;23.36;44.05
8160;BME280;27404;52.398;9.646;2022-08-21T10:52:58;100840.91;;;23.13;42.79
8160;BME280;27404;52.398;9.646;2022-08-21T10:55:41;100833.94;;;23.01;43.17
8160;BME280;27404;52.398;9.646;2022-08-21T10:58:11;100835.34;;;23.13;42.92
8160;BME280;27404;52.398;9.646;2022-08-21T11:03:27;100846.66;;;23.30;41.05
8160;BME280;27404;52.398;9.646;2022-08-21T11:05:59;100844.00;;;23.48;41.53
8160;BME280;27404;52.398;9.646;2022-08-21T11:08:39;100839.09;;;23.31;40.47
8160;BME280;27404;52.398;9.646;2022-08-21T11:14:30;100847.22;;;23.41;41.76
8160;BME280;27404;52.398;9.646;2022-08-21T11:17:19;100846.44;;;23.49;39.89
8160;BME280;27404;52.398;9.646;2022-08-21T11:20:03;100852.78;;;23.64;40.79
8160;BME280;27404;52.398;9.646;2022-08-21T11:22:54;100858.53;;;23.67;41.07
8160;BME280;27404;52.398;9.646;2022-08-21T11:33:28;100837.56;;;24.02;41.43
8160;BME280;27404;52.398;9.646;2022-08-21T11:36:06;100835.97;;;23.87;41.21
8160;BME280;27404;52.398;9.646;2022-08-21T11:38:40;100832.97;;;24.06;39.79
8160;BME280;27404;52.398;9.646;2022-08-21T11:41:23;100833.34;;;24.31;40.58
8160;BME280;27404;52.398;9.646;2022-08-21T11:44:18;100830.25;;;24.41;40.88
8160;BME280;27404;52.398;9.646;2022-08-21T11:49:43;100839.47;;;24.42;37.91
8160;BME280;27404;52.398;9.646;2022-08-21T11:54:51;100834.25;;;24.49;38.34
8160;BME280;27404;52.398;9.646;2022-08-21T12:00:07;100835.53;;;24.51;38.11
8160;BME280;27404;52.398;9.646;2022-08-21T12:02:40;100827.19;;;24.69;38.22
8160;BME280;27404;52.398;9.646;2022-08-21T12:05:09;100826.50;;;24.63;37.56
8160;BME280;27404;52.398;9.646;2022-08-21T12:07:40;100837.75;;;24.81;38.00
8160;BME280;27404;52.398;9.646;2022-08-21T12:10:12;100835.59;;;24.78;37.13
8160;BME280;27404;52.398;9.646;2022-08-21T12:12:40;100830.94;;;24.55;37.37
8160;BME280;27404;52.398;9.646;2022-08-21T12:18:02;100827.66;;;24.53;37.95
8160;BME280;27404;52.398;9.646;2022-08-21T12:25:37;100835.59;;;24.87;38.61
8160;BME280;27404;52.398;9.646;2022-08-21T12:28:11;100831.94;;;24.68;38.29
8160;BME280;27404;52.398;9.646;2022-08-21T12:30:41;100836.25;;;24.75;38.05
8160;BME280;27404;52.398;9.646;2022-08-21T12:33:30;100826.06;;;25.14;38.07
8160;BME280;27404;52.398;9.646;2022-08-21T12:36:04;100822.44;;;25.31;37.21
8160;BME280;27404;52.398;9.646;2022-08-21T12:38:51;100821.75;;;25.34;36.60
8160;BME280;27404;52.398;9.646;2022-08-21T12:43:57;100821.72;;;25.52;36.07
8160;BME280;27404;52.398;9.646;2022-08-21T12:46:50;100822.56;;;25.43;36.20
8160;BME280;27404;52.398;9.646;2022-08-21T12:49:27;100814.13;;;25.61;37.12
8160;BME280;27404;52.398;9.646;2022-08-21T12:52:20;100811.50;;;25.65;35.92
8160;BME280;27404;52.398;9.646;2022-08-21T12:54:46;100811.88;;;25.54;36.22
8160;BME280;27404;52.398;9.646;2022-08-21T12:57:24;100809.72;;;25.42;36.48
8160;BME280;27404;52.398;9.646;2022-08-21T12:59:58;100807.72;;;25.52;35.56
8160;BME280;27404;52.398;9.646;2022-08-21T13:02:36;100809.09;;;25.46;35.32
8160;BME280;27404;52.398;9.646;2022-08-21T13:05:06;100813.16;;;25.57;36.93
8160;BME280;27404;52.398;9.646;2022-08-21T13:07:35;100810.22;;;25.53;35.84
8160;BME280;27404;52.398;9.646;2022-08-21T13:10:20;100807.28;;;25.50;35.81
8160;BME280;27404;52.398;9.646;2022-08-21T13:12:47;100810.34;;;25.57;35.35
8160;BME280;27404;52.398;9.646;2022-08-21T13:15:14;100806.56;;;25.62;35.99
8160;BME280;27404;52.398;9.646;2022-08-21T13:17:45;100809.50;;;25.65;35.45
8160;BME280;27404;52.398;9.646;2022-08-21T13:20:38;100812.63;;;25.72;34.54
8160;BME280;27404;52.398;9.646;2022-08-21T13:23:26;100801.53;;;25.85;35.84
8160;BME280;27404;52.398;9.646;2022-08-21T13:25:53;100807.56;;;25.96;34.76
8160;BME280;27404;52.398;9.646;2022-08-21T13:28:19;100802.63;;;26.01;35.71
8160;BME280;27404;52.398;9.646;2022-08-21T13:30:48;100797.72;;;25.90;36.47
8160;BME280;27404;52.398;9.646;2022-08-21T13:33:16;100805.56;;;26.05;35.66
8160;BME280;27404;52.398;9.646;2022-08-21T13:38:25;100804.72;;;26.13;35.29
8160;BME280;27404;52.398;9.646;2022-08-21T13:41:02;100805.69;;;26.17;34.31
8160;BME280;27404;52.398;9.646;2022-08-21T13:43:32;100801.59;;;26.15;34.06
8160;BME280;27404;52.398;9.646;2022-08-21T13:46:00;100797.28;;;26.17;34.81
8160;BME280;27404;52.398;9.646;2022-08-21T13:48:28;100800.63;;;26.02;34.75
8160;BME280;27404;52.398;9.646;2022-08-21T13:50:55;100802.53;;;26.19;36.09
8160;BME280;27404;52.398;9.646;2022-08-21T13:53:28;100788.63;;;26.01;35.04
8160;BME280;27404;52.398;9.646;2022-08-21T13:55:55;100790.53;;;25.80;34.78
8160;BME280;27404;52.398;9.646;2022-08-21T13:58:29;100793.38;;;25.71;35.03
8160;BME280;27404;52.398;9.646;2022-08-21T14:00:58;100797.25;;;25.49;35.32
8160;BME280;27404;52.398;9.646;2022-08-21T14:03:45;100800.19;;;25.35;35.30
8160;BME280;27404;52.398;9.646;2022-08-21T14:06:18;100799.66;;;25.59;35.35
8160;BME280;27404;52.398;9.646;2022-08-21T14:08:59;100791.19;;;25.77;34.31
8160;BME280;27404;52.398;9.646;2022-08-21T14:11:27;100791.31;;;25.89;35.08
8160;BME280;27404;52.398;9.646;2022-08-21T14:16:26;100796.47;;;26.08;35.70
8160;BME280;27404;52.398;9.646;2022-08-21T14:19:08;100794.69;;;26.04;35.77